Etusivu
METAR-TAF:

METAR-TAF

Lentoasemat :

McMinnville, Oregon, Yhdysvallat

Leveyspiiri: 45-11-46N, Pituuspiiri: 123-07-56W, korkeus merenpinnasta: 48 m

Tämänhetkinen sää

Tämä raportti tehtiin 8 minuuttia sitten, kello 16.36 UTC
tyyntä
Lämpötila 14°C
Kosteus 72%
Ilmanpaine 1007 hPa
Näkyvyys: 16.1 km
Muutamia pilviä 1500 ft:n korkeudessa
Hajanaisia pilviä 2300 ft:n korkeudessa
Pilvistä 4100 ft:n korkeudessa

METAR: KMMV 191636Z AUTO 00000KT 10SM FEW015 SCT023 OVC041 14/09 A2975 RMK AO2 T01390089 $

Aika: 09:44 (16:44 UTC)


TAF: puuttuu

Säähavainnot ja -ennusteet yli 4000 lentoasemalta (METAR- ja TAF-raportit).

Käytössä olevat sääasemat on merkitty karttaan keltaisilla ja punaisilla pisteillä.

Aseta hiiri pisteen päälle nähdäksesi sääaseman nimen.

Klikkaa sitten nähdäksesi säähavainnot ja -ennusteet.

Kartan vaihtaminen: klikkaa mustalla rastilla varustettuja vihreitä pisteitä, niin voit zoomata sisään; viivalla varustettua vihreää pistettä, niin voit zoomata ulos tai vihreitä nuolia, niin pääset viereisille kartoille.


METAR-TAF: